OMAM/DHF METAR and TAF weather

Enter ICAO airport designator
Station Type Date Time Source
OMAM METAR 2019/04/25 17:30 UTC NOAA

OMAM 251730Z 31008KT CAVOK 22/13 Q1016 A3000


Station Type Date Time Source
OMAM Decoded METAR 2019/04/25 17:30 UTC NOAA

Station name not available
Apr 25, 2019 - 01:30 PM EDT / 2019.04.25 1730 UTC
Wind: from the NW (310 degrees) at 9 MPH (8 KT):0
Visibility: greater than 7 mile(s):0
Temperature: 71 F (22 C)
Dew Point: 55 F (13 C)
Relative Humidity: 56%
Pressure (altimeter): 30 in. Hg (1015 hPa)
ob: OMAM 251730Z 31008KT CAVOK 22/13 Q1016 A3000
cycle: 17

Station Type Date Time Source
OMAM TAF 2015/04/12 06:25 UTC NOAA

TAF OMAM 120525Z 1206/1312 16006KT CAVOK
BECMG 1213/1215 04009KT
BECMG 1221/1223 14006KT
BECMG 1309/1311 31013KT

Example: see airport list